sensor_id;sensor_type;location;lat;lon;timestamp;P1;durP1;ratioP1;P2;durP2;ratioP2
77722;SDS011;66890;42.656;23.394;2023-01-23T00:00:32;7.68;;;4.72;;
77722;SDS011;66890;42.656;23.394;2023-01-23T00:03:03;6.90;;;3.67;;
77722;SDS011;66890;42.656;23.394;2023-01-23T00:05:34;6.63;;;4.55;;
77722;SDS011;66890;42.656;23.394;2023-01-23T00:08:04;6.13;;;3.72;;
77722;SDS011;66890;42.656;23.394;2023-01-23T00:10:36;8.95;;;4.47;;
77722;SDS011;66890;42.656;23.394;2023-01-23T00:13:08;6.65;;;4.95;;
77722;SDS011;66890;42.656;23.394;2023-01-23T00:15:38;7.25;;;4.47;;
77722;SDS011;66890;42.656;23.394;2023-01-23T00:18:09;7.68;;;4.90;;
77722;SDS011;66890;42.656;23.394;2023-01-23T00:20:40;6.55;;;4.18;;
77722;SDS011;66890;42.656;23.394;2023-01-23T00:23:11;6.82;;;4.28;;
77722;SDS011;66890;42.656;23.394;2023-01-23T00:25:42;5.88;;;4.47;;
77722;SDS011;66890;42.656;23.394;2023-01-23T00:28:14;6.90;;;4.65;;
77722;SDS011;66890;42.656;23.394;2023-01-23T00:30:45;6.50;;;4.63;;
77722;SDS011;66890;42.656;23.394;2023-01-23T00:33:15;8.20;;;4.95;;
77722;SDS011;66890;42.656;23.394;2023-01-23T00:35:46;7.82;;;4.57;;
77722;SDS011;66890;42.656;23.394;2023-01-23T00:38:16;6.18;;;4.72;;
77722;SDS011;66890;42.656;23.394;2023-01-23T00:40:47;6.90;;;4.60;;
77722;SDS011;66890;42.656;23.394;2023-01-23T00:43:19;8.10;;;5.18;;
77722;SDS011;66890;42.656;23.394;2023-01-23T00:45:50;8.90;;;5.28;;
77722;SDS011;66890;42.656;23.394;2023-01-23T00:48:20;8.70;;;4.82;;
77722;SDS011;66890;42.656;23.394;2023-01-23T00:50:51;6.25;;;4.22;;
77722;SDS011;66890;42.656;23.394;2023-01-23T00:53:23;8.43;;;5.45;;
77722;SDS011;66890;42.656;23.394;2023-01-23T00:55:53;8.75;;;4.65;;
77722;SDS011;66890;42.656;23.394;2023-01-23T00:58:25;8.85;;;5.53;;
77722;SDS011;66890;42.656;23.394;2023-01-23T01:00:56;10.10;;;5.35;;
77722;SDS011;66890;42.656;23.394;2023-01-23T01:03:26;13.80;;;5.30;;
77722;SDS011;66890;42.656;23.394;2023-01-23T01:05:57;11.35;;;5.88;;
77722;SDS011;66890;42.656;23.394;2023-01-23T01:08:28;10.52;;;5.40;;
77722;SDS011;66890;42.656;23.394;2023-01-23T01:10:58;7.35;;;4.30;;
77722;SDS011;66890;42.656;23.394;2023-01-23T01:13:30;8.43;;;5.10;;
77722;SDS011;66890;42.656;23.394;2023-01-23T01:16:01;9.18;;;5.63;;
77722;SDS011;66890;42.656;23.394;2023-01-23T01:18:32;8.13;;;5.15;;
77722;SDS011;66890;42.656;23.394;2023-01-23T01:21:04;11.13;;;5.47;;
77722;SDS011;66890;42.656;23.394;2023-01-23T01:23:37;9.85;;;5.53;;
77722;SDS011;66890;42.656;23.394;2023-01-23T01:26:08;8.63;;;4.95;;
77722;SDS011;66890;42.656;23.394;2023-01-23T01:28:41;10.15;;;5.28;;
77722;SDS011;66890;42.656;23.394;2023-01-23T01:31:12;7.78;;;5.05;;
77722;SDS011;66890;42.656;23.394;2023-01-23T01:33:44;10.68;;;5.57;;
77722;SDS011;66890;42.656;23.394;2023-01-23T01:36:15;6.75;;;4.60;;
77722;SDS011;66890;42.656;23.394;2023-01-23T01:38:47;5.57;;;4.32;;
77722;SDS011;66890;42.656;23.394;2023-01-23T01:41:18;4.28;;;2.88;;
77722;SDS011;66890;42.656;23.394;2023-01-23T01:43:50;6.50;;;3.42;;
77722;SDS011;66890;42.656;23.394;2023-01-23T01:46:21;4.93;;;3.58;;
77722;SDS011;66890;42.656;23.394;2023-01-23T01:48:59;8.38;;;4.60;;
77722;SDS011;66890;42.656;23.394;2023-01-23T01:51:39;6.65;;;4.13;;
77722;SDS011;66890;42.656;23.394;2023-01-23T01:54:14;6.90;;;4.60;;
77722;SDS011;66890;42.656;23.394;2023-01-23T01:56:50;4.60;;;3.00;;
77722;SDS011;66890;42.656;23.394;2023-01-23T01:59:25;4.97;;;3.00;;
77722;SDS011;66890;42.656;23.394;2023-01-23T02:02:01;6.22;;;4.35;;
77722;SDS011;66890;42.656;23.394;2023-01-23T02:04:35;6.18;;;3.70;;
77722;SDS011;66890;42.656;23.394;2023-01-23T02:07:08;7.85;;;4.00;;
77722;SDS011;66890;42.656;23.394;2023-01-23T02:09:43;6.28;;;3.50;;
77722;SDS011;66890;42.656;23.394;2023-01-23T02:12:14;5.03;;;3.47;;
77722;SDS011;66890;42.656;23.394;2023-01-23T02:14:46;4.15;;;2.95;;
77722;SDS011;66890;42.656;23.394;2023-01-23T02:17:17;5.43;;;2.97;;
77722;SDS011;66890;42.656;23.394;2023-01-23T02:19:50;5.43;;;3.20;;
77722;SDS011;66890;42.656;23.394;2023-01-23T02:22:26;5.28;;;3.33;;
77722;SDS011;66890;42.656;23.394;2023-01-23T02:25:07;6.00;;;3.33;;
77722;SDS011;66890;42.656;23.394;2023-01-23T02:27:47;6.63;;;3.20;;
77722;SDS011;66890;42.656;23.394;2023-01-23T02:30:18;7.40;;;3.80;;
77722;SDS011;66890;42.656;23.394;2023-01-23T02:32:49;6.47;;;3.65;;
77722;SDS011;66890;42.656;23.394;2023-01-23T02:35:20;6.03;;;4.28;;
77722;SDS011;66890;42.656;23.394;2023-01-23T02:37:54;5.47;;;3.75;;
77722;SDS011;66890;42.656;23.394;2023-01-23T02:40:30;5.68;;;3.55;;
77722;SDS011;66890;42.656;23.394;2023-01-23T02:43:02;4.18;;;2.97;;
77722;SDS011;66890;42.656;23.394;2023-01-23T02:45:34;7.10;;;3.75;;
77722;SDS011;66890;42.656;23.394;2023-01-23T02:48:05;4.80;;;2.97;;
77722;SDS011;66890;42.656;23.394;2023-01-23T02:50:36;4.50;;;3.08;;
77722;SDS011;66890;42.656;23.394;2023-01-23T02:53:06;4.40;;;2.40;;
77722;SDS011;66890;42.656;23.394;2023-01-23T02:55:37;6.35;;;3.45;;
77722;SDS011;66890;42.656;23.394;2023-01-23T02:58:09;4.50;;;3.38;;
77722;SDS011;66890;42.656;23.394;2023-01-23T03:00:41;4.05;;;2.50;;
77722;SDS011;66890;42.656;23.394;2023-01-23T03:03:12;4.75;;;3.05;;
77722;SDS011;66890;42.656;23.394;2023-01-23T03:05:43;4.50;;;2.15;;
77722;SDS011;66890;42.656;23.394;2023-01-23T03:08:13;5.57;;;2.78;;
77722;SDS011;66890;42.656;23.394;2023-01-23T03:10:44;3.63;;;2.35;;
77722;SDS011;66890;42.656;23.394;2023-01-23T03:13:16;4.75;;;2.67;;
77722;SDS011;66890;42.656;23.394;2023-01-23T03:15:49;3.25;;;2.53;;
77722;SDS011;66890;42.656;23.394;2023-01-23T03:18:19;4.07;;;2.35;;
77722;SDS011;66890;42.656;23.394;2023-01-23T03:20:50;4.57;;;2.13;;
77722;SDS011;66890;42.656;23.394;2023-01-23T03:23:20;6.50;;;3.53;;
77722;SDS011;66890;42.656;23.394;2023-01-23T03:25:51;2.63;;;2.10;;
77722;SDS011;66890;42.656;23.394;2023-01-23T03:28:23;3.75;;;2.10;;
77722;SDS011;66890;42.656;23.394;2023-01-23T03:30:54;4.20;;;2.63;;
77722;SDS011;66890;42.656;23.394;2023-01-23T03:33:24;4.82;;;3.08;;
77722;SDS011;66890;42.656;23.394;2023-01-23T03:35:55;5.05;;;2.88;;
77722;SDS011;66890;42.656;23.394;2023-01-23T03:38:25;6.85;;;2.90;;
77722;SDS011;66890;42.656;23.394;2023-01-23T03:40:56;4.82;;;2.83;;
77722;SDS011;66890;42.656;23.394;2023-01-23T03:43:30;5.88;;;3.50;;
77722;SDS011;66890;42.656;23.394;2023-01-23T03:46:01;5.78;;;3.10;;
77722;SDS011;66890;42.656;23.394;2023-01-23T03:48:32;7.15;;;2.92;;
77722;SDS011;66890;42.656;23.394;2023-01-23T03:51:02;6.68;;;3.40;;
77722;SDS011;66890;42.656;23.394;2023-01-23T03:53:33;5.80;;;2.63;;
77722;SDS011;66890;42.656;23.394;2023-01-23T03:56:04;3.72;;;2.55;;
77722;SDS011;66890;42.656;23.394;2023-01-23T03:58:36;5.68;;;3.20;;
77722;SDS011;66890;42.656;23.394;2023-01-23T04:01:07;8.23;;;2.95;;
77722;SDS011;66890;42.656;23.394;2023-01-23T04:03:38;4.55;;;2.88;;
77722;SDS011;66890;42.656;23.394;2023-01-23T04:06:10;5.88;;;3.03;;
77722;SDS011;66890;42.656;23.394;2023-01-23T04:08:40;4.97;;;3.45;;
77722;SDS011;66890;42.656;23.394;2023-01-23T04:11:11;5.25;;;2.78;;
77722;SDS011;66890;42.656;23.394;2023-01-23T04:13:43;3.88;;;2.35;;
77722;SDS011;66890;42.656;23.394;2023-01-23T04:16:14;4.68;;;2.50;;
77722;SDS011;66890;42.656;23.394;2023-01-23T04:18:45;4.38;;;2.78;;
77722;SDS011;66890;42.656;23.394;2023-01-23T04:21:15;4.10;;;2.40;;
77722;SDS011;66890;42.656;23.394;2023-01-23T04:23:46;4.53;;;2.22;;
77722;SDS011;66890;42.656;23.394;2023-01-23T04:26:16;2.83;;;1.80;;
77722;SDS011;66890;42.656;23.394;2023-01-23T04:28:48;4.55;;;2.28;;
77722;SDS011;66890;42.656;23.394;2023-01-23T04:31:19;6.45;;;2.40;;
77722;SDS011;66890;42.656;23.394;2023-01-23T04:33:50;4.68;;;1.92;;
77722;SDS011;66890;42.656;23.394;2023-01-23T04:36:20;4.15;;;1.63;;
77722;SDS011;66890;42.656;23.394;2023-01-23T04:38:51;2.83;;;1.88;;
77722;SDS011;66890;42.656;23.394;2023-01-23T04:41:22;3.45;;;1.98;;
77722;SDS011;66890;42.656;23.394;2023-01-23T04:43:56;3.85;;;1.60;;
77722;SDS011;66890;42.656;23.394;2023-01-23T04:46:26;6.82;;;2.25;;
77722;SDS011;66890;42.656;23.394;2023-01-23T04:48:57;4.40;;;2.58;;
77722;SDS011;66890;42.656;23.394;2023-01-23T04:51:27;3.17;;;1.80;;
77722;SDS011;66890;42.656;23.394;2023-01-23T04:53:58;8.10;;;2.58;;
77722;SDS011;66890;42.656;23.394;2023-01-23T04:56:29;3.85;;;1.98;;
77722;SDS011;66890;42.656;23.394;2023-01-23T04:59:00;5.15;;;1.95;;
77722;SDS011;66890;42.656;23.394;2023-01-23T05:01:31;5.45;;;2.45;;
77722;SDS011;66890;42.656;23.394;2023-01-23T05:04:02;4.63;;;2.75;;
77722;SDS011;66890;42.656;23.394;2023-01-23T05:06:33;4.70;;;2.10;;
77722;SDS011;66890;42.656;23.394;2023-01-23T05:09:04;3.75;;;2.78;;
77722;SDS011;66890;42.656;23.394;2023-01-23T05:11:35;5.18;;;3.08;;
77722;SDS011;66890;42.656;23.394;2023-01-23T05:14:07;3.72;;;2.10;;
77722;SDS011;66890;42.656;23.394;2023-01-23T05:16:38;2.92;;;1.73;;
77722;SDS011;66890;42.656;23.394;2023-01-23T05:19:08;6.75;;;2.85;;
77722;SDS011;66890;42.656;23.394;2023-01-23T05:21:39;3.42;;;1.75;;
77722;SDS011;66890;42.656;23.394;2023-01-23T05:24:09;3.03;;;1.80;;
77722;SDS011;66890;42.656;23.394;2023-01-23T05:26:40;4.75;;;2.80;;
77722;SDS011;66890;42.656;23.394;2023-01-23T05:29:12;3.95;;;2.38;;
77722;SDS011;66890;42.656;23.394;2023-01-23T05:31:42;5.65;;;2.30;;
77722;SDS011;66890;42.656;23.394;2023-01-23T05:34:13;4.93;;;1.95;;
77722;SDS011;66890;42.656;23.394;2023-01-23T05:36:44;4.38;;;2.10;;
77722;SDS011;66890;42.656;23.394;2023-01-23T05:39:14;2.55;;;1.67;;
77722;SDS011;66890;42.656;23.394;2023-01-23T05:41:45;4.68;;;1.77;;
77722;SDS011;66890;42.656;23.394;2023-01-23T05:44:17;2.90;;;1.60;;
77722;SDS011;66890;42.656;23.394;2023-01-23T05:46:47;2.67;;;1.90;;
77722;SDS011;66890;42.656;23.394;2023-01-23T05:49:18;4.82;;;2.03;;
77722;SDS011;66890;42.656;23.394;2023-01-23T05:51:49;2.60;;;2.03;;
77722;SDS011;66890;42.656;23.394;2023-01-23T05:54:19;3.80;;;2.33;;
77722;SDS011;66890;42.656;23.394;2023-01-23T05:56:50;4.30;;;2.50;;
77722;SDS011;66890;42.656;23.394;2023-01-23T05:59:22;4.28;;;2.33;;
77722;SDS011;66890;42.656;23.394;2023-01-23T06:01:52;5.10;;;2.35;;
77722;SDS011;66890;42.656;23.394;2023-01-23T06:04:23;4.25;;;2.28;;
77722;SDS011;66890;42.656;23.394;2023-01-23T06:06:53;3.38;;;1.60;;
77722;SDS011;66890;42.656;23.394;2023-01-23T06:09:24;6.20;;;2.35;;
77722;SDS011;66890;42.656;23.394;2023-01-23T06:11:54;4.35;;;1.80;;
77722;SDS011;66890;42.656;23.394;2023-01-23T06:14:27;4.20;;;1.70;;
77722;SDS011;66890;42.656;23.394;2023-01-23T06:16:57;4.15;;;2.13;;
77722;SDS011;66890;42.656;23.394;2023-01-23T06:19:28;4.40;;;2.15;;
77722;SDS011;66890;42.656;23.394;2023-01-23T06:21:58;5.00;;;2.65;;
77722;SDS011;66890;42.656;23.394;2023-01-23T06:24:29;4.53;;;3.00;;
77722;SDS011;66890;42.656;23.394;2023-01-23T06:27:00;5.15;;;2.15;;
77722;SDS011;66890;42.656;23.394;2023-01-23T06:29:32;7.28;;;3.13;;
77722;SDS011;66890;42.656;23.394;2023-01-23T06:32:03;6.10;;;3.70;;
77722;SDS011;66890;42.656;23.394;2023-01-23T06:34:34;4.38;;;3.03;;
77722;SDS011;66890;42.656;23.394;2023-01-23T06:37:04;6.05;;;3.38;;
77722;SDS011;66890;42.656;23.394;2023-01-23T06:39:35;7.30;;;4.45;;
77722;SDS011;66890;42.656;23.394;2023-01-23T06:42:06;7.20;;;3.25;;
77722;SDS011;66890;42.656;23.394;2023-01-23T06:44:39;7.85;;;3.65;;
77722;SDS011;66890;42.656;23.394;2023-01-23T06:47:09;12.45;;;5.32;;
77722;SDS011;66890;42.656;23.394;2023-01-23T06:49:40;6.32;;;4.28;;
77722;SDS011;66890;42.656;23.394;2023-01-23T06:52:10;8.88;;;4.75;;
77722;SDS011;66890;42.656;23.394;2023-01-23T06:54:41;8.60;;;5.18;;
77722;SDS011;66890;42.656;23.394;2023-01-23T06:57:11;10.73;;;6.90;;
77722;SDS011;66890;42.656;23.394;2023-01-23T06:59:43;10.48;;;4.95;;
77722;SDS011;66890;42.656;23.394;2023-01-23T07:02:14;8.07;;;4.13;;
77722;SDS011;66890;42.656;23.394;2023-01-23T07:04:45;12.65;;;6.03;;
77722;SDS011;66890;42.656;23.394;2023-01-23T07:07:15;9.27;;;5.07;;
77722;SDS011;66890;42.656;23.394;2023-01-23T07:09:46;8.88;;;4.97;;
77722;SDS011;66890;42.656;23.394;2023-01-23T07:12:16;9.38;;;5.18;;
77722;SDS011;66890;42.656;23.394;2023-01-23T07:14:48;7.88;;;4.80;;
77722;SDS011;66890;42.656;23.394;2023-01-23T07:17:19;10.07;;;5.45;;
77722;SDS011;66890;42.656;23.394;2023-01-23T07:19:50;9.07;;;5.88;;
77722;SDS011;66890;42.656;23.394;2023-01-23T07:22:21;10.82;;;6.30;;
77722;SDS011;66890;42.656;23.394;2023-01-23T07:24:52;10.85;;;6.55;;
77722;SDS011;66890;42.656;23.394;2023-01-23T07:27:22;8.75;;;4.85;;
77722;SDS011;66890;42.656;23.394;2023-01-23T07:29:54;11.13;;;6.60;;
77722;SDS011;66890;42.656;23.394;2023-01-23T07:32:25;11.88;;;6.43;;
77722;SDS011;66890;42.656;23.394;2023-01-23T07:34:55;10.60;;;6.03;;
77722;SDS011;66890;42.656;23.394;2023-01-23T07:37:26;11.90;;;6.72;;
77722;SDS011;66890;42.656;23.394;2023-01-23T07:39:56;12.40;;;5.38;;
77722;SDS011;66890;42.656;23.394;2023-01-23T07:42:27;11.10;;;6.05;;
77722;SDS011;66890;42.656;23.394;2023-01-23T07:44:59;13.18;;;6.15;;
77722;SDS011;66890;42.656;23.394;2023-01-23T07:47:30;14.95;;;7.28;;
77722;SDS011;66890;42.656;23.394;2023-01-23T07:50:00;10.00;;;7.40;;
77722;SDS011;66890;42.656;23.394;2023-01-23T07:52:31;9.20;;;5.00;;
77722;SDS011;66890;42.656;23.394;2023-01-23T07:55:01;12.40;;;6.55;;
77722;SDS011;66890;42.656;23.394;2023-01-23T07:57:32;11.82;;;5.82;;
77722;SDS011;66890;42.656;23.394;2023-01-23T08:00:05;11.40;;;6.28;;
77722;SDS011;66890;42.656;23.394;2023-01-23T08:02:37;13.55;;;6.63;;
77722;SDS011;66890;42.656;23.394;2023-01-23T08:05:08;13.25;;;7.07;;
77722;SDS011;66890;42.656;23.394;2023-01-23T08:07:39;10.70;;;5.47;;
77722;SDS011;66890;42.656;23.394;2023-01-23T08:10:10;10.60;;;6.78;;
77722;SDS011;66890;42.656;23.394;2023-01-23T08:12:41;9.02;;;4.75;;
77722;SDS011;66890;42.656;23.394;2023-01-23T08:15:13;7.80;;;4.55;;
77722;SDS011;66890;42.656;23.394;2023-01-23T08:17:44;9.75;;;4.55;;
77722;SDS011;66890;42.656;23.394;2023-01-23T08:20:14;4.97;;;3.25;;
77722;SDS011;66890;42.656;23.394;2023-01-23T08:22:45;5.72;;;3.35;;
77722;SDS011;66890;42.656;23.394;2023-01-23T08:25:16;7.53;;;5.22;;
77722;SDS011;66890;42.656;23.394;2023-01-23T08:27:47;5.80;;;3.35;;
77722;SDS011;66890;42.656;23.394;2023-01-23T08:30:19;10.52;;;6.18;;
77722;SDS011;66890;42.656;23.394;2023-01-23T08:32:49;8.20;;;4.40;;
77722;SDS011;66890;42.656;23.394;2023-01-23T08:35:20;7.00;;;3.00;;
77722;SDS011;66890;42.656;23.394;2023-01-23T08:37:51;8.25;;;5.57;;
77722;SDS011;66890;42.656;23.394;2023-01-23T08:40:21;6.60;;;3.38;;
77722;SDS011;66890;42.656;23.394;2023-01-23T08:42:52;5.70;;;3.03;;
77722;SDS011;66890;42.656;23.394;2023-01-23T08:45:24;4.82;;;3.15;;
77722;SDS011;66890;42.656;23.394;2023-01-23T08:47:55;6.65;;;3.22;;
77722;SDS011;66890;42.656;23.394;2023-01-23T08:50:25;4.07;;;2.53;;
77722;SDS011;66890;42.656;23.394;2023-01-23T08:52:56;5.47;;;3.33;;
77722;SDS011;66890;42.656;23.394;2023-01-23T08:55:26;5.32;;;3.15;;
77722;SDS011;66890;42.656;23.394;2023-01-23T08:57:57;5.78;;;2.75;;
77722;SDS011;66890;42.656;23.394;2023-01-23T09:00:29;5.05;;;2.78;;
77722;SDS011;66890;42.656;23.394;2023-01-23T09:03:00;5.07;;;1.92;;
77722;SDS011;66890;42.656;23.394;2023-01-23T09:05:30;5.72;;;3.50;;
77722;SDS011;66890;42.656;23.394;2023-01-23T09:08:01;4.95;;;3.08;;
77722;SDS011;66890;42.656;23.394;2023-01-23T09:10:32;5.75;;;3.33;;
77722;SDS011;66890;42.656;23.394;2023-01-23T09:13:02;7.88;;;3.38;;
77722;SDS011;66890;42.656;23.394;2023-01-23T09:15:36;7.60;;;3.40;;
77722;SDS011;66890;42.656;23.394;2023-01-23T09:18:06;6.22;;;3.08;;
77722;SDS011;66890;42.656;23.394;2023-01-23T09:20:37;6.93;;;3.60;;
77722;SDS011;66890;42.656;23.394;2023-01-23T09:23:08;6.07;;;2.88;;
77722;SDS011;66890;42.656;23.394;2023-01-23T09:25:38;4.72;;;2.80;;
77722;SDS011;66890;42.656;23.394;2023-01-23T09:28:09;4.53;;;2.13;;
77722;SDS011;66890;42.656;23.394;2023-01-23T09:30:42;5.70;;;2.80;;
77722;SDS011;66890;42.656;23.394;2023-01-23T09:33:12;4.18;;;2.08;;
77722;SDS011;66890;42.656;23.394;2023-01-23T09:35:43;4.38;;;2.80;;
77722;SDS011;66890;42.656;23.394;2023-01-23T09:38:13;3.63;;;2.40;;
77722;SDS011;66890;42.656;23.394;2023-01-23T09:40:44;5.93;;;3.30;;
77722;SDS011;66890;42.656;23.394;2023-01-23T09:43:21;4.85;;;2.22;;
77722;SDS011;66890;42.656;23.394;2023-01-23T09:45:58;4.88;;;2.28;;
77722;SDS011;66890;42.656;23.394;2023-01-23T09:48:33;5.22;;;2.50;;
77722;SDS011;66890;42.656;23.394;2023-01-23T09:53:46;4.55;;;2.92;;
77722;SDS011;66890;42.656;23.394;2023-01-23T09:56:20;4.95;;;3.03;;
77722;SDS011;66890;42.656;23.394;2023-01-23T09:58:58;6.80;;;4.00;;
77722;SDS011;66890;42.656;23.394;2023-01-23T10:01:36;7.05;;;3.55;;
77722;SDS011;66890;42.656;23.394;2023-01-23T10:04:09;5.32;;;2.75;;
77722;SDS011;66890;42.656;23.394;2023-01-23T10:06:57;5.10;;;2.50;;
77722;SDS011;66890;42.656;23.394;2023-01-23T10:09:53;5.88;;;3.22;;
77722;SDS011;66890;42.656;23.394;2023-01-23T10:12:36;5.57;;;3.42;;
77722;SDS011;66890;42.656;23.394;2023-01-23T10:15:18;5.32;;;3.47;;
77722;SDS011;66890;42.656;23.394;2023-01-23T10:18:01;5.45;;;4.07;;
77722;SDS011;66890;42.656;23.394;2023-01-23T10:20:54;6.32;;;3.95;;
77722;SDS011;66890;42.656;23.394;2023-01-23T10:23:37;5.03;;;3.15;;
77722;SDS011;66890;42.656;23.394;2023-01-23T10:26:17;7.32;;;3.95;;
77722;SDS011;66890;42.656;23.394;2023-01-23T10:28:52;10.95;;;3.90;;
77722;SDS011;66890;42.656;23.394;2023-01-23T10:31:28;6.45;;;3.53;;
77722;SDS011;66890;42.656;23.394;2023-01-23T10:34:10;4.68;;;2.85;;
77722;SDS011;66890;42.656;23.394;2023-01-23T10:36:49;8.77;;;3.78;;
77722;SDS011;66890;42.656;23.394;2023-01-23T10:39:30;8.43;;;3.75;;
77722;SDS011;66890;42.656;23.394;2023-01-23T10:42:12;7.47;;;4.60;;
77722;SDS011;66890;42.656;23.394;2023-01-23T10:44:43;6.60;;;3.88;;
77722;SDS011;66890;42.656;23.394;2023-01-23T10:47:15;5.88;;;3.78;;
77722;SDS011;66890;42.656;23.394;2023-01-23T10:49:51;7.13;;;3.88;;
77722;SDS011;66890;42.656;23.394;2023-01-23T10:52:29;9.00;;;4.97;;
77722;SDS011;66890;42.656;23.394;2023-01-23T10:57:36;10.02;;;5.53;;
77722;SDS011;66890;42.656;23.394;2023-01-23T11:00:19;8.65;;;4.53;;
77722;SDS011;66890;42.656;23.394;2023-01-23T11:02:51;11.80;;;6.47;;
77722;SDS011;66890;42.656;23.394;2023-01-23T11:05:36;9.82;;;5.70;;
77722;SDS011;66890;42.656;23.394;2023-01-23T11:08:20;11.60;;;5.90;;
77722;SDS011;66890;42.656;23.394;2023-01-23T11:10:53;6.35;;;4.35;;
77722;SDS011;66890;42.656;23.394;2023-01-23T11:13:28;5.15;;;3.70;;
77722;SDS011;66890;42.656;23.394;2023-01-23T11:15:59;8.45;;;5.40;;
77722;SDS011;66890;42.656;23.394;2023-01-23T11:18:30;8.77;;;4.90;;
77722;SDS011;66890;42.656;23.394;2023-01-23T11:21:05;8.88;;;4.78;;
77722;SDS011;66890;42.656;23.394;2023-01-23T11:23:35;7.65;;;4.40;;
77722;SDS011;66890;42.656;23.394;2023-01-23T11:26:07;7.15;;;4.15;;
77722;SDS011;66890;42.656;23.394;2023-01-23T11:29:00;8.60;;;4.35;;
77722;SDS011;66890;42.656;23.394;2023-01-23T11:31:30;9.82;;;4.25;;
77722;SDS011;66890;42.656;23.394;2023-01-23T11:34:02;8.30;;;5.15;;
77722;SDS011;66890;42.656;23.394;2023-01-23T11:36:44;9.45;;;4.78;;
77722;SDS011;66890;42.656;23.394;2023-01-23T11:39:28;8.23;;;4.95;;
77722;SDS011;66890;42.656;23.394;2023-01-23T11:42:11;9.93;;;6.30;;
77722;SDS011;66890;42.656;23.394;2023-01-23T11:44:44;6.97;;;4.97;;
77722;SDS011;66890;42.656;23.394;2023-01-23T11:47:23;9.07;;;5.57;;
77722;SDS011;66890;42.656;23.394;2023-01-23T11:50:27;6.55;;;3.83;;
77722;SDS011;66890;42.656;23.394;2023-01-23T11:55:57;6.15;;;3.97;;
77722;SDS011;66890;42.656;23.394;2023-01-23T11:58:53;10.93;;;4.28;;
77722;SDS011;66890;42.656;23.394;2023-01-23T12:01:55;6.55;;;4.95;;
77722;SDS011;66890;42.656;23.394;2023-01-23T12:05:01;8.93;;;4.95;;
77722;SDS011;66890;42.656;23.394;2023-01-23T12:07:44;6.80;;;3.65;;
77722;SDS011;66890;42.656;23.394;2023-01-23T12:10:25;8.55;;;5.35;;
77722;SDS011;66890;42.656;23.394;2023-01-23T12:13:04;15.57;;;5.85;;
77722;SDS011;66890;42.656;23.394;2023-01-23T12:15:45;8.77;;;5.38;;
77722;SDS011;66890;42.656;23.394;2023-01-23T12:18:32;7.85;;;5.13;;
77722;SDS011;66890;42.656;23.394;2023-01-23T12:21:13;9.68;;;5.53;;
77722;SDS011;66890;42.656;23.394;2023-01-23T12:23:52;5.55;;;4.25;;
77722;SDS011;66890;42.656;23.394;2023-01-23T12:26:32;9.98;;;5.47;;
77722;SDS011;66890;42.656;23.394;2023-01-23T12:29:11;8.10;;;5.43;;
77722;SDS011;66890;42.656;23.394;2023-01-23T12:32:31;9.45;;;5.68;;
77722;SDS011;66890;42.656;23.394;2023-01-23T12:35:26;9.73;;;4.72;;
77722;SDS011;66890;42.656;23.394;2023-01-23T12:40:55;9.63;;;5.45;;
77722;SDS011;66890;42.656;23.394;2023-01-23T12:43:39;7.55;;;5.88;;
77722;SDS011;66890;42.656;23.394;2023-01-23T12:46:17;8.90;;;5.28;;
77722;SDS011;66890;42.656;23.394;2023-01-23T12:48:52;11.20;;;4.80;;
77722;SDS011;66890;42.656;23.394;2023-01-23T12:51:32;14.25;;;6.95;;
77722;SDS011;66890;42.656;23.394;2023-01-23T12:54:10;7.88;;;5.30;;
77722;SDS011;66890;42.656;23.394;2023-01-23T12:56:45;6.60;;;4.63;;
77722;SDS011;66890;42.656;23.394;2023-01-23T12:59:20;8.98;;;5.22;;
77722;SDS011;66890;42.656;23.394;2023-01-23T13:01:57;6.90;;;4.70;;
77722;SDS011;66890;42.656;23.394;2023-01-23T13:04:51;7.18;;;4.90;;
77722;SDS011;66890;42.656;23.394;2023-01-23T13:07:35;7.70;;;4.25;;
77722;SDS011;66890;42.656;23.394;2023-01-23T13:10:26;6.18;;;4.55;;
77722;SDS011;66890;42.656;23.394;2023-01-23T13:13:05;6.00;;;4.18;;
77722;SDS011;66890;42.656;23.394;2023-01-23T13:15:37;8.90;;;5.15;;
77722;SDS011;66890;42.656;23.394;2023-01-23T13:18:18;6.80;;;4.60;;
77722;SDS011;66890;42.656;23.394;2023-01-23T13:20:55;10.70;;;5.22;;
77722;SDS011;66890;42.656;23.394;2023-01-23T13:23:27;6.80;;;4.72;;
77722;SDS011;66890;42.656;23.394;2023-01-23T13:26:21;8.02;;;4.68;;
77722;SDS011;66890;42.656;23.394;2023-01-23T13:28:56;6.93;;;4.75;;
77722;SDS011;66890;42.656;23.394;2023-01-23T13:31:33;9.15;;;4.95;;
77722;SDS011;66890;42.656;23.394;2023-01-23T13:40:00;7.47;;;4.68;;
77722;SDS011;66890;42.656;23.394;2023-01-23T13:42:32;10.77;;;6.68;;
77722;SDS011;66890;42.656;23.394;2023-01-23T13:45:16;9.43;;;5.43;;
77722;SDS011;66890;42.656;23.394;2023-01-23T13:47:52;10.18;;;6.22;;
77722;SDS011;66890;42.656;23.394;2023-01-23T13:50:41;10.55;;;5.40;;
77722;SDS011;66890;42.656;23.394;2023-01-23T13:53:15;8.13;;;4.82;;
77722;SDS011;66890;42.656;23.394;2023-01-23T13:55:48;8.65;;;5.95;;
77722;SDS011;66890;42.656;23.394;2023-01-23T13:58:19;7.47;;;4.95;;
77722;SDS011;66890;42.656;23.394;2023-01-23T14:00:52;11.85;;;5.93;;
77722;SDS011;66890;42.656;23.394;2023-01-23T14:03:29;11.45;;;4.80;;
77722;SDS011;66890;42.656;23.394;2023-01-23T14:06:03;12.65;;;7.15;;
77722;SDS011;66890;42.656;23.394;2023-01-23T14:08:44;11.45;;;6.80;;
77722;SDS011;66890;42.656;23.394;2023-01-23T14:11:17;12.43;;;5.57;;
77722;SDS011;66890;42.656;23.394;2023-01-23T14:13:50;14.02;;;7.65;;
77722;SDS011;66890;42.656;23.394;2023-01-23T14:16:21;13.88;;;7.40;;
77722;SDS011;66890;42.656;23.394;2023-01-23T14:18:54;10.55;;;6.53;;
77722;SDS011;66890;42.656;23.394;2023-01-23T14:21:27;11.23;;;6.10;;
77722;SDS011;66890;42.656;23.394;2023-01-23T14:24:00;14.00;;;7.35;;
77722;SDS011;66890;42.656;23.394;2023-01-23T14:26:32;10.52;;;5.75;;
77722;SDS011;66890;42.656;23.394;2023-01-23T14:29:14;11.27;;;5.32;;
77722;SDS011;66890;42.656;23.394;2023-01-23T14:31:48;9.02;;;5.72;;
77722;SDS011;66890;42.656;23.394;2023-01-23T14:34:21;11.35;;;5.65;;
77722;SDS011;66890;42.656;23.394;2023-01-23T14:36:55;8.98;;;5.57;;
77722;SDS011;66890;42.656;23.394;2023-01-23T14:39:31;10.88;;;4.78;;
77722;SDS011;66890;42.656;23.394;2023-01-23T14:42:04;9.07;;;5.10;;
77722;SDS011;66890;42.656;23.394;2023-01-23T14:44:36;7.28;;;4.40;;
77722;SDS011;66890;42.656;23.394;2023-01-23T14:47:13;8.35;;;4.80;;
77722;SDS011;66890;42.656;23.394;2023-01-23T14:49:47;8.32;;;4.20;;
77722;SDS011;66890;42.656;23.394;2023-01-23T14:52:20;12.95;;;5.65;;
77722;SDS011;66890;42.656;23.394;2023-01-23T14:54:51;7.03;;;4.00;;
77722;SDS011;66890;42.656;23.394;2023-01-23T14:57:22;9.48;;;4.82;;
77722;SDS011;66890;42.656;23.394;2023-01-23T14:59:55;5.65;;;3.05;;
77722;SDS011;66890;42.656;23.394;2023-01-23T15:02:30;7.43;;;3.92;;
77722;SDS011;66890;42.656;23.394;2023-01-23T15:05:06;11.38;;;5.88;;
77722;SDS011;66890;42.656;23.394;2023-01-23T15:07:42;6.30;;;4.10;;
77722;SDS011;66890;42.656;23.394;2023-01-23T15:10:16;8.00;;;4.70;;
77722;SDS011;66890;42.656;23.394;2023-01-23T15:12:49;8.68;;;5.20;;
77722;SDS011;66890;42.656;23.394;2023-01-23T15:15:23;6.85;;;4.07;;
77722;SDS011;66890;42.656;23.394;2023-01-23T15:17:55;5.35;;;3.30;;
77722;SDS011;66890;42.656;23.394;2023-01-23T15:20:30;7.35;;;4.65;;
77722;SDS011;66890;42.656;23.394;2023-01-23T15:28:51;7.28;;;4.10;;
77722;SDS011;66890;42.656;23.394;2023-01-23T15:31:23;10.45;;;6.43;;
77722;SDS011;66890;42.656;23.394;2023-01-23T15:36:45;7.18;;;3.58;;